sensor_id;sensor_type;location;lat;lon;timestamp;P1;durP1;ratioP1;P2;durP2;ratioP2
17773;SDS011;9011;33.236;-97.118;2022-08-01T00:01:55;5.15;;;1.90;;
17773;SDS011;9011;33.236;-97.118;2022-08-01T00:04:23;4.25;;;2.10;;
17773;SDS011;9011;33.236;-97.118;2022-08-01T00:06:52;6.25;;;2.60;;
17773;SDS011;9011;33.236;-97.118;2022-08-01T00:09:20;7.68;;;2.45;;
17773;SDS011;9011;33.236;-97.118;2022-08-01T00:11:48;5.63;;;2.00;;
17773;SDS011;9011;33.236;-97.118;2022-08-01T00:14:18;7.60;;;2.00;;
17773;SDS011;9011;33.236;-97.118;2022-08-01T00:16:47;6.28;;;2.17;;
17773;SDS011;9011;33.236;-97.118;2022-08-01T00:19:15;9.35;;;2.83;;
17773;SDS011;9011;33.236;-97.118;2022-08-01T00:21:43;7.82;;;2.25;;
17773;SDS011;9011;33.236;-97.118;2022-08-01T00:24:12;5.90;;;2.60;;
17773;SDS011;9011;33.236;-97.118;2022-08-01T00:26:40;8.32;;;2.30;;
17773;SDS011;9011;33.236;-97.118;2022-08-01T00:29:09;10.52;;;3.28;;
17773;SDS011;9011;33.236;-97.118;2022-08-01T00:31:39;6.95;;;1.92;;
17773;SDS011;9011;33.236;-97.118;2022-08-01T00:34:07;7.97;;;2.25;;
17773;SDS011;9011;33.236;-97.118;2022-08-01T00:36:36;5.95;;;2.28;;
17773;SDS011;9011;33.236;-97.118;2022-08-01T00:39:05;6.15;;;2.25;;
17773;SDS011;9011;33.236;-97.118;2022-08-01T00:41:33;5.38;;;2.10;;
17773;SDS011;9011;33.236;-97.118;2022-08-01T00:44:02;10.70;;;2.10;;
17773;SDS011;9011;33.236;-97.118;2022-08-01T00:46:31;5.05;;;1.83;;
17773;SDS011;9011;33.236;-97.118;2022-08-01T00:49:02;4.88;;;2.00;;
17773;SDS011;9011;33.236;-97.118;2022-08-01T00:51:30;6.85;;;2.03;;
17773;SDS011;9011;33.236;-97.118;2022-08-01T00:53:59;5.70;;;2.08;;
17773;SDS011;9011;33.236;-97.118;2022-08-01T00:56:27;4.88;;;1.83;;
17773;SDS011;9011;33.236;-97.118;2022-08-01T00:58:56;8.70;;;2.15;;
17773;SDS011;9011;33.236;-97.118;2022-08-01T01:01:25;9.00;;;2.85;;
17773;SDS011;9011;33.236;-97.118;2022-08-01T01:03:54;5.13;;;1.83;;
17773;SDS011;9011;33.236;-97.118;2022-08-01T01:06:26;9.45;;;2.28;;
17773;SDS011;9011;33.236;-97.118;2022-08-01T01:09:07;7.18;;;2.42;;
17773;SDS011;9011;33.236;-97.118;2022-08-01T01:11:44;6.45;;;2.08;;
17773;SDS011;9011;33.236;-97.118;2022-08-01T01:14:18;8.80;;;2.78;;
17773;SDS011;9011;33.236;-97.118;2022-08-01T01:16:54;6.20;;;2.00;;
17773;SDS011;9011;33.236;-97.118;2022-08-01T01:19:27;6.38;;;2.00;;
17773;SDS011;9011;33.236;-97.118;2022-08-01T01:22:05;6.55;;;2.10;;
17773;SDS011;9011;33.236;-97.118;2022-08-01T01:24:47;7.50;;;2.55;;
17773;SDS011;9011;33.236;-97.118;2022-08-01T01:27:36;4.63;;;1.65;;
17773;SDS011;9011;33.236;-97.118;2022-08-01T01:30:14;9.63;;;1.80;;
17773;SDS011;9011;33.236;-97.118;2022-08-01T01:32:44;6.38;;;2.00;;
17773;SDS011;9011;33.236;-97.118;2022-08-01T01:35:17;8.20;;;2.50;;
17773;SDS011;9011;33.236;-97.118;2022-08-01T01:37:51;8.68;;;2.22;;
17773;SDS011;9011;33.236;-97.118;2022-08-01T01:40:23;6.95;;;2.42;;
17773;SDS011;9011;33.236;-97.118;2022-08-01T01:42:52;7.43;;;2.08;;
17773;SDS011;9011;33.236;-97.118;2022-08-01T01:45:26;7.15;;;1.95;;
17773;SDS011;9011;33.236;-97.118;2022-08-01T01:47:55;8.00;;;1.83;;
17773;SDS011;9011;33.236;-97.118;2022-08-01T01:50:25;7.57;;;2.20;;
17773;SDS011;9011;33.236;-97.118;2022-08-01T01:52:54;9.95;;;2.40;;
17773;SDS011;9011;33.236;-97.118;2022-08-01T01:55:24;8.15;;;1.90;;
17773;SDS011;9011;33.236;-97.118;2022-08-01T01:57:53;11.60;;;2.58;;
17773;SDS011;9011;33.236;-97.118;2022-08-01T02:00:25;9.10;;;3.03;;
17773;SDS011;9011;33.236;-97.118;2022-08-01T02:02:55;9.90;;;2.15;;
17773;SDS011;9011;33.236;-97.118;2022-08-01T02:05:25;8.35;;;2.75;;
17773;SDS011;9011;33.236;-97.118;2022-08-01T02:07:55;8.30;;;2.10;;
17773;SDS011;9011;33.236;-97.118;2022-08-01T02:10:24;8.95;;;2.90;;
17773;SDS011;9011;33.236;-97.118;2022-08-01T02:12:55;8.20;;;2.42;;
17773;SDS011;9011;33.236;-97.118;2022-08-01T02:15:27;8.57;;;2.00;;
17773;SDS011;9011;33.236;-97.118;2022-08-01T02:17:58;6.05;;;2.50;;
17773;SDS011;9011;33.236;-97.118;2022-08-01T02:20:28;5.68;;;2.25;;
17773;SDS011;9011;33.236;-97.118;2022-08-01T02:23:00;6.50;;;2.42;;
17773;SDS011;9011;33.236;-97.118;2022-08-01T02:25:32;7.07;;;2.15;;
17773;SDS011;9011;33.236;-97.118;2022-08-01T02:28:06;7.97;;;2.33;;
17773;SDS011;9011;33.236;-97.118;2022-08-01T02:30:41;4.28;;;1.67;;
17773;SDS011;9011;33.236;-97.118;2022-08-01T02:33:12;6.93;;;2.47;;
17773;SDS011;9011;33.236;-97.118;2022-08-01T02:35:45;6.93;;;2.67;;
17773;SDS011;9011;33.236;-97.118;2022-08-01T02:38:18;10.18;;;2.30;;
17773;SDS011;9011;33.236;-97.118;2022-08-01T02:40:50;6.82;;;2.35;;
17773;SDS011;9011;33.236;-97.118;2022-08-01T02:43:23;7.00;;;3.17;;
17773;SDS011;9011;33.236;-97.118;2022-08-01T02:45:57;12.35;;;2.20;;
17773;SDS011;9011;33.236;-97.118;2022-08-01T02:48:28;7.70;;;2.55;;
17773;SDS011;9011;33.236;-97.118;2022-08-01T02:51:00;9.00;;;2.33;;
17773;SDS011;9011;33.236;-97.118;2022-08-01T02:53:31;8.50;;;2.17;;
17773;SDS011;9011;33.236;-97.118;2022-08-01T02:56:04;7.15;;;2.50;;
17773;SDS011;9011;33.236;-97.118;2022-08-01T02:58:33;7.53;;;2.40;;
17773;SDS011;9011;33.236;-97.118;2022-08-01T03:01:06;7.53;;;2.40;;
17773;SDS011;9011;33.236;-97.118;2022-08-01T03:03:36;4.78;;;2.50;;
17773;SDS011;9011;33.236;-97.118;2022-08-01T03:06:05;9.43;;;2.03;;
17773;SDS011;9011;33.236;-97.118;2022-08-01T03:08:34;9.07;;;2.67;;
17773;SDS011;9011;33.236;-97.118;2022-08-01T03:11:03;9.13;;;2.63;;
17773;SDS011;9011;33.236;-97.118;2022-08-01T03:13:34;5.93;;;2.33;;
17773;SDS011;9011;33.236;-97.118;2022-08-01T03:16:04;8.07;;;2.33;;
17773;SDS011;9011;33.236;-97.118;2022-08-01T03:18:35;9.20;;;2.25;;
17773;SDS011;9011;33.236;-97.118;2022-08-01T03:21:04;5.63;;;2.20;;
17773;SDS011;9011;33.236;-97.118;2022-08-01T03:23:36;4.50;;;2.20;;
17773;SDS011;9011;33.236;-97.118;2022-08-01T03:26:05;7.35;;;2.60;;
17773;SDS011;9011;33.236;-97.118;2022-08-01T03:28:35;8.32;;;2.30;;
17773;SDS011;9011;33.236;-97.118;2022-08-01T03:31:04;7.47;;;2.60;;
17773;SDS011;9011;33.236;-97.118;2022-08-01T03:33:35;8.45;;;2.20;;
17773;SDS011;9011;33.236;-97.118;2022-08-01T03:36:03;6.07;;;2.22;;
17773;SDS011;9011;33.236;-97.118;2022-08-01T03:38:37;7.28;;;2.40;;
17773;SDS011;9011;33.236;-97.118;2022-08-01T03:41:08;5.55;;;2.50;;
17773;SDS011;9011;33.236;-97.118;2022-08-01T03:43:41;8.90;;;2.83;;
17773;SDS011;9011;33.236;-97.118;2022-08-01T03:46:16;6.15;;;2.38;;
17773;SDS011;9011;33.236;-97.118;2022-08-01T03:48:47;7.53;;;2.70;;
17773;SDS011;9011;33.236;-97.118;2022-08-01T03:51:18;6.63;;;2.42;;
17773;SDS011;9011;33.236;-97.118;2022-08-01T03:53:48;7.18;;;2.70;;
17773;SDS011;9011;33.236;-97.118;2022-08-01T03:56:19;7.10;;;1.98;;
17773;SDS011;9011;33.236;-97.118;2022-08-01T03:58:50;5.88;;;2.10;;
17773;SDS011;9011;33.236;-97.118;2022-08-01T04:01:20;9.38;;;2.15;;
17773;SDS011;9011;33.236;-97.118;2022-08-01T04:03:49;8.43;;;2.38;;
17773;SDS011;9011;33.236;-97.118;2022-08-01T04:06:18;9.05;;;2.83;;
17773;SDS011;9011;33.236;-97.118;2022-08-01T04:08:46;8.30;;;3.10;;
17773;SDS011;9011;33.236;-97.118;2022-08-01T04:11:23;8.20;;;2.40;;
17773;SDS011;9011;33.236;-97.118;2022-08-01T04:13:52;6.93;;;2.22;;
17773;SDS011;9011;33.236;-97.118;2022-08-01T04:16:24;10.93;;;3.10;;
17773;SDS011;9011;33.236;-97.118;2022-08-01T04:18:52;7.78;;;3.03;;
17773;SDS011;9011;33.236;-97.118;2022-08-01T04:21:22;9.07;;;2.58;;
17773;SDS011;9011;33.236;-97.118;2022-08-01T04:23:53;6.93;;;2.40;;
17773;SDS011;9011;33.236;-97.118;2022-08-01T04:26:25;10.05;;;2.83;;
17773;SDS011;9011;33.236;-97.118;2022-08-01T04:28:54;9.45;;;2.75;;
17773;SDS011;9011;33.236;-97.118;2022-08-01T04:31:24;8.88;;;2.90;;
17773;SDS011;9011;33.236;-97.118;2022-08-01T04:33:54;8.77;;;2.25;;
17773;SDS011;9011;33.236;-97.118;2022-08-01T04:36:24;8.32;;;2.70;;
17773;SDS011;9011;33.236;-97.118;2022-08-01T04:38:57;8.93;;;2.75;;
17773;SDS011;9011;33.236;-97.118;2022-08-01T04:41:27;9.35;;;2.78;;
17773;SDS011;9011;33.236;-97.118;2022-08-01T04:43:57;11.88;;;3.70;;
17773;SDS011;9011;33.236;-97.118;2022-08-01T04:46:27;5.93;;;2.40;;
17773;SDS011;9011;33.236;-97.118;2022-08-01T04:48:56;7.30;;;2.83;;
17773;SDS011;9011;33.236;-97.118;2022-08-01T04:51:25;7.15;;;3.30;;
17773;SDS011;9011;33.236;-97.118;2022-08-01T04:53:54;12.27;;;2.75;;
17773;SDS011;9011;33.236;-97.118;2022-08-01T04:56:23;5.00;;;2.13;;
17773;SDS011;9011;33.236;-97.118;2022-08-01T04:58:51;6.72;;;1.80;;
17773;SDS011;9011;33.236;-97.118;2022-08-01T05:01:35;12.60;;;2.75;;
17773;SDS011;9011;33.236;-97.118;2022-08-01T05:04:03;6.38;;;2.15;;
17773;SDS011;9011;33.236;-97.118;2022-08-01T05:06:31;9.60;;;2.83;;
17773;SDS011;9011;33.236;-97.118;2022-08-01T05:09:00;10.77;;;3.45;;
17773;SDS011;9011;33.236;-97.118;2022-08-01T05:11:28;7.75;;;3.08;;
17773;SDS011;9011;33.236;-97.118;2022-08-01T05:13:56;8.05;;;2.58;;
17773;SDS011;9011;33.236;-97.118;2022-08-01T05:16:24;8.13;;;3.03;;
17773;SDS011;9011;33.236;-97.118;2022-08-01T05:18:54;8.40;;;3.08;;
17773;SDS011;9011;33.236;-97.118;2022-08-01T05:21:23;7.72;;;2.40;;
17773;SDS011;9011;33.236;-97.118;2022-08-01T05:23:51;5.13;;;2.30;;
17773;SDS011;9011;33.236;-97.118;2022-08-01T05:26:20;9.10;;;3.10;;
17773;SDS011;9011;33.236;-97.118;2022-08-01T05:28:48;8.82;;;2.85;;
17773;SDS011;9011;33.236;-97.118;2022-08-01T05:31:16;7.38;;;2.55;;
17773;SDS011;9011;33.236;-97.118;2022-08-01T05:33:45;11.05;;;3.35;;
17773;SDS011;9011;33.236;-97.118;2022-08-01T05:36:14;6.18;;;2.58;;
17773;SDS011;9011;33.236;-97.118;2022-08-01T05:38:43;7.22;;;2.70;;
17773;SDS011;9011;33.236;-97.118;2022-08-01T05:41:11;9.40;;;2.45;;
17773;SDS011;9011;33.236;-97.118;2022-08-01T05:43:39;8.52;;;2.70;;
17773;SDS011;9011;33.236;-97.118;2022-08-01T05:46:08;6.80;;;2.33;;
17773;SDS011;9011;33.236;-97.118;2022-08-01T05:48:36;5.88;;;2.40;;
17773;SDS011;9011;33.236;-97.118;2022-08-01T05:51:04;10.18;;;2.65;;
17773;SDS011;9011;33.236;-97.118;2022-08-01T05:53:34;7.65;;;2.47;;
17773;SDS011;9011;33.236;-97.118;2022-08-01T05:56:02;9.23;;;2.85;;
17773;SDS011;9011;33.236;-97.118;2022-08-01T05:58:31;8.00;;;2.30;;
17773;SDS011;9011;33.236;-97.118;2022-08-01T06:00:59;10.20;;;2.63;;
17773;SDS011;9011;33.236;-97.118;2022-08-01T06:03:27;8.32;;;2.65;;
17773;SDS011;9011;33.236;-97.118;2022-08-01T06:05:57;7.32;;;2.40;;
17773;SDS011;9011;33.236;-97.118;2022-08-01T06:08:25;6.00;;;2.38;;
17773;SDS011;9011;33.236;-97.118;2022-08-01T06:10:55;9.05;;;3.28;;
17773;SDS011;9011;33.236;-97.118;2022-08-01T06:13:24;12.32;;;3.25;;
17773;SDS011;9011;33.236;-97.118;2022-08-01T06:15:52;9.35;;;3.47;;
17773;SDS011;9011;33.236;-97.118;2022-08-01T06:18:21;10.38;;;2.92;;
17773;SDS011;9011;33.236;-97.118;2022-08-01T06:20:49;10.45;;;3.05;;
17773;SDS011;9011;33.236;-97.118;2022-08-01T06:23:17;12.50;;;2.70;;
17773;SDS011;9011;33.236;-97.118;2022-08-01T06:25:47;8.35;;;2.90;;
17773;SDS011;9011;33.236;-97.118;2022-08-01T06:28:17;9.50;;;2.90;;
17773;SDS011;9011;33.236;-97.118;2022-08-01T06:30:45;8.88;;;2.85;;
17773;SDS011;9011;33.236;-97.118;2022-08-01T06:33:13;14.25;;;2.75;;
17773;SDS011;9011;33.236;-97.118;2022-08-01T06:35:41;7.57;;;2.67;;
17773;SDS011;9011;33.236;-97.118;2022-08-01T06:38:10;6.22;;;2.30;;
17773;SDS011;9011;33.236;-97.118;2022-08-01T06:40:38;11.00;;;2.95;;
17773;SDS011;9011;33.236;-97.118;2022-08-01T06:43:06;8.10;;;2.72;;
17773;SDS011;9011;33.236;-97.118;2022-08-01T06:45:38;8.48;;;3.00;;
17773;SDS011;9011;33.236;-97.118;2022-08-01T06:48:06;7.45;;;2.05;;
17773;SDS011;9011;33.236;-97.118;2022-08-01T06:50:34;6.82;;;2.60;;
17773;SDS011;9011;33.236;-97.118;2022-08-01T06:53:03;8.15;;;2.35;;
17773;SDS011;9011;33.236;-97.118;2022-08-01T06:55:31;11.45;;;2.75;;
17773;SDS011;9011;33.236;-97.118;2022-08-01T06:58:00;10.15;;;2.92;;
17773;SDS011;9011;33.236;-97.118;2022-08-01T07:00:28;7.68;;;2.15;;
17773;SDS011;9011;33.236;-97.118;2022-08-01T07:02:58;9.77;;;2.35;;
17773;SDS011;9011;33.236;-97.118;2022-08-01T07:05:26;7.00;;;2.97;;
17773;SDS011;9011;33.236;-97.118;2022-08-01T07:07:56;8.07;;;2.47;;
17773;SDS011;9011;33.236;-97.118;2022-08-01T07:10:25;11.25;;;3.00;;
17773;SDS011;9011;33.236;-97.118;2022-08-01T07:12:53;9.35;;;2.88;;
17773;SDS011;9011;33.236;-97.118;2022-08-01T07:15:21;7.30;;;2.75;;
17773;SDS011;9011;33.236;-97.118;2022-08-01T07:17:51;8.55;;;2.80;;
17773;SDS011;9011;33.236;-97.118;2022-08-01T07:20:21;13.55;;;2.80;;
17773;SDS011;9011;33.236;-97.118;2022-08-01T07:22:50;14.43;;;3.00;;
17773;SDS011;9011;33.236;-97.118;2022-08-01T07:25:19;11.00;;;2.80;;
17773;SDS011;9011;33.236;-97.118;2022-08-01T07:27:47;6.25;;;2.53;;
17773;SDS011;9011;33.236;-97.118;2022-08-01T07:30:15;10.40;;;2.70;;
17773;SDS011;9011;33.236;-97.118;2022-08-01T07:32:43;8.45;;;2.55;;
17773;SDS011;9011;33.236;-97.118;2022-08-01T07:35:12;15.30;;;3.22;;
17773;SDS011;9011;33.236;-97.118;2022-08-01T07:37:42;7.70;;;2.40;;
17773;SDS011;9011;33.236;-97.118;2022-08-01T07:40:10;10.43;;;3.05;;
17773;SDS011;9011;33.236;-97.118;2022-08-01T07:42:39;11.23;;;2.83;;
17773;SDS011;9011;33.236;-97.118;2022-08-01T07:45:09;13.40;;;2.90;;
17773;SDS011;9011;33.236;-97.118;2022-08-01T07:47:38;6.85;;;2.67;;
17773;SDS011;9011;33.236;-97.118;2022-08-01T07:50:07;10.32;;;2.65;;
17773;SDS011;9011;33.236;-97.118;2022-08-01T07:52:35;8.27;;;2.30;;
17773;SDS011;9011;33.236;-97.118;2022-08-01T07:55:06;5.65;;;2.20;;
17773;SDS011;9011;33.236;-97.118;2022-08-01T07:57:35;7.38;;;2.00;;
17773;SDS011;9011;33.236;-97.118;2022-08-01T08:00:04;9.32;;;3.05;;
17773;SDS011;9011;33.236;-97.118;2022-08-01T08:02:34;8.20;;;3.05;;
17773;SDS011;9011;33.236;-97.118;2022-08-01T08:05:03;10.82;;;2.22;;
17773;SDS011;9011;33.236;-97.118;2022-08-01T08:07:32;8.35;;;2.15;;
17773;SDS011;9011;33.236;-97.118;2022-08-01T08:10:01;8.27;;;1.77;;
17773;SDS011;9011;33.236;-97.118;2022-08-01T08:12:32;5.50;;;1.90;;
17773;SDS011;9011;33.236;-97.118;2022-08-01T08:15:00;10.68;;;2.47;;
17773;SDS011;9011;33.236;-97.118;2022-08-01T08:17:31;7.78;;;2.30;;
17773;SDS011;9011;33.236;-97.118;2022-08-01T08:19:59;7.85;;;2.75;;
17773;SDS011;9011;33.236;-97.118;2022-08-01T08:22:27;7.93;;;2.30;;
17773;SDS011;9011;33.236;-97.118;2022-08-01T08:24:56;7.00;;;2.03;;
17773;SDS011;9011;33.236;-97.118;2022-08-01T08:27:24;6.88;;;2.72;;
17773;SDS011;9011;33.236;-97.118;2022-08-01T08:29:54;6.85;;;2.28;;
17773;SDS011;9011;33.236;-97.118;2022-08-01T08:32:22;7.32;;;2.25;;
17773;SDS011;9011;33.236;-97.118;2022-08-01T08:34:51;6.57;;;1.98;;
17773;SDS011;9011;33.236;-97.118;2022-08-01T08:37:19;5.18;;;2.25;;
17773;SDS011;9011;33.236;-97.118;2022-08-01T08:39:47;10.02;;;2.53;;
17773;SDS011;9011;33.236;-97.118;2022-08-01T08:42:15;5.43;;;1.85;;
17773;SDS011;9011;33.236;-97.118;2022-08-01T08:44:45;7.10;;;2.20;;
17773;SDS011;9011;33.236;-97.118;2022-08-01T08:47:15;8.73;;;2.55;;
17773;SDS011;9011;33.236;-97.118;2022-08-01T08:49:44;4.93;;;1.92;;
17773;SDS011;9011;33.236;-97.118;2022-08-01T08:52:13;4.70;;;2.15;;
17773;SDS011;9011;33.236;-97.118;2022-08-01T08:54:44;5.85;;;2.40;;
17773;SDS011;9011;33.236;-97.118;2022-08-01T08:57:14;6.30;;;2.00;;
17773;SDS011;9011;33.236;-97.118;2022-08-01T08:59:43;8.15;;;1.90;;
17773;SDS011;9011;33.236;-97.118;2022-08-01T09:02:12;8.82;;;2.13;;
17773;SDS011;9011;33.236;-97.118;2022-08-01T09:04:42;8.05;;;2.05;;
17773;SDS011;9011;33.236;-97.118;2022-08-01T09:07:10;7.03;;;2.63;;
17773;SDS011;9011;33.236;-97.118;2022-08-01T09:09:39;4.75;;;2.10;;
17773;SDS011;9011;33.236;-97.118;2022-08-01T09:12:08;4.95;;;1.92;;
17773;SDS011;9011;33.236;-97.118;2022-08-01T09:14:43;4.22;;;1.88;;
17773;SDS011;9011;33.236;-97.118;2022-08-01T09:17:12;5.00;;;1.75;;
17773;SDS011;9011;33.236;-97.118;2022-08-01T09:19:43;6.82;;;1.70;;
17773;SDS011;9011;33.236;-97.118;2022-08-01T09:22:14;7.95;;;2.08;;
17773;SDS011;9011;33.236;-97.118;2022-08-01T09:24:59;4.50;;;1.50;;
17773;SDS011;9011;33.236;-97.118;2022-08-01T09:27:30;5.57;;;1.80;;
17773;SDS011;9011;33.236;-97.118;2022-08-01T09:30:09;9.18;;;2.05;;
17773;SDS011;9011;33.236;-97.118;2022-08-01T09:32:54;5.95;;;2.22;;
17773;SDS011;9011;33.236;-97.118;2022-08-01T09:35:27;5.00;;;1.85;;
17773;SDS011;9011;33.236;-97.118;2022-08-01T09:38:12;4.50;;;1.70;;
17773;SDS011;9011;33.236;-97.118;2022-08-01T09:40:45;3.10;;;1.27;;
17773;SDS011;9011;33.236;-97.118;2022-08-01T09:43:15;3.80;;;1.30;;
17773;SDS011;9011;33.236;-97.118;2022-08-01T09:45:43;3.35;;;1.42;;
17773;SDS011;9011;33.236;-97.118;2022-08-01T09:48:11;5.03;;;1.80;;
17773;SDS011;9011;33.236;-97.118;2022-08-01T09:50:43;6.78;;;1.77;;
17773;SDS011;9011;33.236;-97.118;2022-08-01T09:53:12;11.50;;;2.47;;
17773;SDS011;9011;33.236;-97.118;2022-08-01T09:55:41;6.25;;;1.77;;
17773;SDS011;9011;33.236;-97.118;2022-08-01T09:58:11;3.88;;;1.63;;
17773;SDS011;9011;33.236;-97.118;2022-08-01T10:00:40;4.80;;;2.08;;
17773;SDS011;9011;33.236;-97.118;2022-08-01T10:03:18;7.13;;;1.70;;
17773;SDS011;9011;33.236;-97.118;2022-08-01T10:05:49;2.92;;;1.20;;
17773;SDS011;9011;33.236;-97.118;2022-08-01T10:08:19;7.43;;;1.80;;
17773;SDS011;9011;33.236;-97.118;2022-08-01T10:13:35;4.65;;;1.40;;
17773;SDS011;9011;33.236;-97.118;2022-08-01T10:16:04;5.57;;;1.80;;
17773;SDS011;9011;33.236;-97.118;2022-08-01T10:18:34;5.00;;;1.50;;
17773;SDS011;9011;33.236;-97.118;2022-08-01T10:21:05;6.75;;;1.63;;
17773;SDS011;9011;33.236;-97.118;2022-08-01T10:23:34;5.80;;;1.67;;
17773;SDS011;9011;33.236;-97.118;2022-08-01T10:26:04;6.00;;;1.60;;
17773;SDS011;9011;33.236;-97.118;2022-08-01T10:28:34;2.85;;;1.40;;
17773;SDS011;9011;33.236;-97.118;2022-08-01T10:31:03;3.35;;;1.17;;
17773;SDS011;9011;33.236;-97.118;2022-08-01T10:33:32;4.60;;;1.40;;
17773;SDS011;9011;33.236;-97.118;2022-08-01T10:36:01;3.53;;;1.60;;
17773;SDS011;9011;33.236;-97.118;2022-08-01T10:38:32;2.60;;;1.50;;
17773;SDS011;9011;33.236;-97.118;2022-08-01T10:41:02;5.75;;;1.48;;
17773;SDS011;9011;33.236;-97.118;2022-08-01T10:43:31;4.85;;;1.23;;
17773;SDS011;9011;33.236;-97.118;2022-08-01T10:45:59;5.60;;;1.40;;
17773;SDS011;9011;33.236;-97.118;2022-08-01T10:48:29;4.22;;;1.20;;
17773;SDS011;9011;33.236;-97.118;2022-08-01T10:51:03;5.72;;;1.35;;
17773;SDS011;9011;33.236;-97.118;2022-08-01T10:53:34;2.47;;;1.30;;
17773;SDS011;9011;33.236;-97.118;2022-08-01T10:56:03;3.63;;;1.25;;
17773;SDS011;9011;33.236;-97.118;2022-08-01T10:58:36;6.60;;;1.52;;
17773;SDS011;9011;33.236;-97.118;2022-08-01T11:01:22;4.70;;;1.35;;
17773;SDS011;9011;33.236;-97.118;2022-08-01T11:03:58;7.72;;;1.45;;
17773;SDS011;9011;33.236;-97.118;2022-08-01T11:06:40;4.57;;;1.30;;
17773;SDS011;9011;33.236;-97.118;2022-08-01T11:09:26;3.88;;;1.65;;
17773;SDS011;9011;33.236;-97.118;2022-08-01T11:11:57;2.60;;;1.33;;
17773;SDS011;9011;33.236;-97.118;2022-08-01T11:14:32;4.18;;;2.05;;
17773;SDS011;9011;33.236;-97.118;2022-08-01T11:20:13;3.38;;;1.25;;
17773;SDS011;9011;33.236;-97.118;2022-08-01T11:31:40;6.45;;;1.60;;
17773;SDS011;9011;33.236;-97.118;2022-08-01T11:34:09;5.90;;;1.63;;
17773;SDS011;9011;33.236;-97.118;2022-08-01T11:36:37;3.80;;;0.98;;
17773;SDS011;9011;33.236;-97.118;2022-08-01T11:39:15;5.57;;;1.00;;
17773;SDS011;9011;33.236;-97.118;2022-08-01T11:41:46;6.80;;;1.42;;
17773;SDS011;9011;33.236;-97.118;2022-08-01T11:44:16;3.40;;;1.45;;
17773;SDS011;9011;33.236;-97.118;2022-08-01T11:47:00;3.83;;;1.20;;
17773;SDS011;9011;33.236;-97.118;2022-08-01T11:52:24;5.88;;;1.35;;
17773;SDS011;9011;33.236;-97.118;2022-08-01T11:54:54;5.25;;;1.33;;
17773;SDS011;9011;33.236;-97.118;2022-08-01T11:57:26;2.60;;;1.20;;
17773;SDS011;9011;33.236;-97.118;2022-08-01T11:59:56;3.83;;;1.10;;
17773;SDS011;9011;33.236;-97.118;2022-08-01T12:02:26;5.65;;;1.48;;
17773;SDS011;9011;33.236;-97.118;2022-08-01T12:04:56;3.35;;;1.00;;
17773;SDS011;9011;33.236;-97.118;2022-08-01T12:07:26;4.63;;;1.08;;
17773;SDS011;9011;33.236;-97.118;2022-08-01T12:09:59;3.90;;;1.13;;
17773;SDS011;9011;33.236;-97.118;2022-08-01T12:12:32;4.10;;;1.25;;
17773;SDS011;9011;33.236;-97.118;2022-08-01T12:15:03;5.63;;;1.45;;
17773;SDS011;9011;33.236;-97.118;2022-08-01T12:17:34;6.63;;;1.42;;
17773;SDS011;9011;33.236;-97.118;2022-08-01T12:20:04;3.67;;;1.45;;
17773;SDS011;9011;33.236;-97.118;2022-08-01T12:22:34;5.82;;;1.35;;
17773;SDS011;9011;33.236;-97.118;2022-08-01T12:25:07;3.55;;;0.95;;
17773;SDS011;9011;33.236;-97.118;2022-08-01T12:27:38;4.95;;;1.20;;
17773;SDS011;9011;33.236;-97.118;2022-08-01T12:30:07;5.07;;;1.20;;
17773;SDS011;9011;33.236;-97.118;2022-08-01T12:32:37;3.28;;;1.42;;
17773;SDS011;9011;33.236;-97.118;2022-08-01T12:35:07;4.00;;;1.38;;
17773;SDS011;9011;33.236;-97.118;2022-08-01T12:37:37;3.72;;;1.25;;
17773;SDS011;9011;33.236;-97.118;2022-08-01T12:40:09;3.25;;;1.10;;
17773;SDS011;9011;33.236;-97.118;2022-08-01T12:42:42;11.82;;;2.22;;
17773;SDS011;9011;33.236;-97.118;2022-08-01T12:45:12;6.18;;;1.20;;
17773;SDS011;9011;33.236;-97.118;2022-08-01T12:47:42;5.15;;;1.20;;
17773;SDS011;9011;33.236;-97.118;2022-08-01T12:50:11;6.57;;;1.50;;
17773;SDS011;9011;33.236;-97.118;2022-08-01T12:52:41;3.35;;;1.40;;
17773;SDS011;9011;33.236;-97.118;2022-08-01T12:55:10;5.53;;;1.63;;
17773;SDS011;9011;33.236;-97.118;2022-08-01T12:57:42;5.90;;;1.35;;
17773;SDS011;9011;33.236;-97.118;2022-08-01T13:00:19;4.20;;;0.90;;
17773;SDS011;9011;33.236;-97.118;2022-08-01T13:02:49;3.95;;;1.20;;
17773;SDS011;9011;33.236;-97.118;2022-08-01T13:05:18;3.33;;;1.35;;
17773;SDS011;9011;33.236;-97.118;2022-08-01T13:07:48;3.30;;;1.08;;
17773;SDS011;9011;33.236;-97.118;2022-08-01T13:10:24;2.85;;;0.90;;
17773;SDS011;9011;33.236;-97.118;2022-08-01T13:12:56;6.20;;;1.48;;
17773;SDS011;9011;33.236;-97.118;2022-08-01T13:15:26;9.15;;;1.52;;
17773;SDS011;9011;33.236;-97.118;2022-08-01T13:17:59;2.75;;;1.10;;
17773;SDS011;9011;33.236;-97.118;2022-08-01T13:20:30;3.40;;;1.48;;
17773;SDS011;9011;33.236;-97.118;2022-08-01T13:23:13;3.35;;;1.00;;
17773;SDS011;9011;33.236;-97.118;2022-08-01T13:25:49;3.47;;;1.23;;
17773;SDS011;9011;33.236;-97.118;2022-08-01T13:28:22;4.55;;;1.00;;
17773;SDS011;9011;33.236;-97.118;2022-08-01T13:30:55;3.38;;;1.00;;
17773;SDS011;9011;33.236;-97.118;2022-08-01T13:33:26;2.72;;;0.80;;
17773;SDS011;9011;33.236;-97.118;2022-08-01T13:36:07;2.60;;;0.98;;
17773;SDS011;9011;33.236;-97.118;2022-08-01T13:38:35;6.68;;;1.42;;
17773;SDS011;9011;33.236;-97.118;2022-08-01T13:41:20;4.35;;;1.05;;
17773;SDS011;9011;33.236;-97.118;2022-08-01T13:43:50;4.00;;;1.20;;
17773;SDS011;9011;33.236;-97.118;2022-08-01T13:46:20;3.00;;;1.05;;
17773;SDS011;9011;33.236;-97.118;2022-08-01T13:48:48;4.43;;;1.00;;
17773;SDS011;9011;33.236;-97.118;2022-08-01T13:51:17;3.42;;;1.08;;
17773;SDS011;9011;33.236;-97.118;2022-08-01T13:53:45;3.78;;;1.10;;
17773;SDS011;9011;33.236;-97.118;2022-08-01T13:56:13;5.10;;;1.08;;
17773;SDS011;9011;33.236;-97.118;2022-08-01T13:58:42;1.50;;;0.82;;
17773;SDS011;9011;33.236;-97.118;2022-08-01T14:01:12;3.55;;;1.15;;
17773;SDS011;9011;33.236;-97.118;2022-08-01T14:03:40;5.00;;;1.08;;
17773;SDS011;9011;33.236;-97.118;2022-08-01T14:06:09;2.45;;;0.90;;
17773;SDS011;9011;33.236;-97.118;2022-08-01T14:08:37;3.83;;;1.30;;
17773;SDS011;9011;33.236;-97.118;2022-08-01T14:11:06;3.03;;;0.85;;
17773;SDS011;9011;33.236;-97.118;2022-08-01T14:13:34;7.00;;;1.33;;
17773;SDS011;9011;33.236;-97.118;2022-08-01T14:16:04;2.47;;;0.80;;
17773;SDS011;9011;33.236;-97.118;2022-08-01T14:18:34;3.60;;;1.00;;
17773;SDS011;9011;33.236;-97.118;2022-08-01T14:21:02;5.68;;;1.15;;
17773;SDS011;9011;33.236;-97.118;2022-08-01T14:23:31;5.45;;;1.20;;
17773;SDS011;9011;33.236;-97.118;2022-08-01T14:25:59;3.40;;;1.10;;
17773;SDS011;9011;33.236;-97.118;2022-08-01T14:28:27;4.20;;;1.10;;
17773;SDS011;9011;33.236;-97.118;2022-08-01T14:30:56;4.20;;;1.08;;
17773;SDS011;9011;33.236;-97.118;2022-08-01T14:33:25;2.92;;;1.02;;
17773;SDS011;9011;33.236;-97.118;2022-08-01T14:35:55;3.85;;;1.10;;
17773;SDS011;9011;33.236;-97.118;2022-08-01T14:38:23;4.22;;;1.13;;
17773;SDS011;9011;33.236;-97.118;2022-08-01T14:40:51;6.30;;;1.10;;
17773;SDS011;9011;33.236;-97.118;2022-08-01T14:43:20;4.05;;;1.30;;
17773;SDS011;9011;33.236;-97.118;2022-08-01T14:45:48;3.92;;;1.25;;
17773;SDS011;9011;33.236;-97.118;2022-08-01T14:48:17;6.65;;;1.27;;
17773;SDS011;9011;33.236;-97.118;2022-08-01T14:50:45;4.55;;;1.20;;
17773;SDS011;9011;33.236;-97.118;2022-08-01T14:53:15;2.88;;;0.90;;
17773;SDS011;9011;33.236;-97.118;2022-08-01T14:55:44;3.20;;;1.00;;
17773;SDS011;9011;33.236;-97.118;2022-08-01T14:58:12;3.78;;;0.93;;
17773;SDS011;9011;33.236;-97.118;2022-08-01T15:00:41;6.47;;;1.30;;
17773;SDS011;9011;33.236;-97.118;2022-08-01T15:03:09;3.80;;;1.30;;
17773;SDS011;9011;33.236;-97.118;2022-08-01T15:05:37;4.53;;;1.42;;
17773;SDS011;9011;33.236;-97.118;2022-08-01T15:08:07;3.22;;;1.20;;
17773;SDS011;9011;33.236;-97.118;2022-08-01T15:10:37;4.60;;;1.00;;